createdAt,value
2022-09-13T00:00:00.143Z,950.79
2022-09-13T00:01:00.181Z,950.80
2022-09-13T00:02:00.160Z,950.82
2022-09-13T00:03:00.103Z,950.77
2022-09-13T00:04:00.075Z,950.83
2022-09-13T00:05:00.075Z,950.78
2022-09-13T00:06:00.070Z,950.72
2022-09-13T00:07:00.040Z,950.81
2022-09-13T00:08:00.030Z,950.78
2022-09-13T00:09:00.021Z,950.76
2022-09-13T00:10:00.023Z,950.73
2022-09-13T00:10:59.989Z,950.73
2022-09-13T00:11:59.993Z,950.65
2022-09-13T00:12:59.970Z,950.70
2022-09-13T00:13:59.960Z,950.65
2022-09-13T00:14:59.959Z,950.73
2022-09-13T00:15:59.971Z,950.59
2022-09-13T00:16:59.928Z,950.60
2022-09-13T00:17:59.921Z,950.65
2022-09-13T00:18:59.901Z,950.61
2022-09-13T00:19:59.906Z,950.61
2022-09-13T00:20:59.880Z,950.59
2022-09-13T00:21:59.887Z,950.62
2022-09-13T00:22:59.860Z,950.69
2022-09-13T00:23:59.847Z,950.57
2022-09-13T00:24:59.868Z,950.58
2022-09-13T00:25:59.828Z,950.56
2022-09-13T00:26:59.818Z,950.59
2022-09-13T00:27:59.817Z,950.63
2022-09-13T00:28:59.846Z,950.62
2022-09-13T00:29:59.786Z,950.61
2022-09-13T00:30:59.784Z,950.62
2022-09-13T00:31:59.782Z,950.69
2022-09-13T00:32:59.836Z,950.65
2022-09-13T00:33:59.736Z,950.55
2022-09-13T00:34:59.736Z,950.60
2022-09-13T00:35:59.726Z,950.60
2022-09-13T00:36:59.707Z,950.56
2022-09-13T00:37:59.696Z,950.59
2022-09-13T00:38:59.687Z,950.69
2022-09-13T00:39:59.700Z,950.64
2022-09-13T00:40:59.669Z,950.56
2022-09-13T00:41:59.645Z,950.63
2022-09-13T00:42:59.647Z,950.61
2022-09-13T00:43:59.625Z,950.65
2022-09-13T00:44:59.614Z,950.59
2022-09-13T00:45:59.648Z,950.60
2022-09-13T00:46:59.612Z,950.63
2022-09-13T00:47:59.575Z,950.49
2022-09-13T00:48:59.581Z,950.47
2022-09-13T00:49:59.554Z,950.41
2022-09-13T00:50:59.552Z,950.36
2022-09-13T00:51:59.548Z,950.39
2022-09-13T00:52:59.523Z,950.33
2022-09-13T00:53:59.513Z,950.35
2022-09-13T00:54:59.504Z,950.37
2022-09-13T00:55:59.484Z,950.48
2022-09-13T00:56:59.492Z,950.45
2022-09-13T00:57:59.471Z,950.49
2022-09-13T00:58:59.463Z,950.49
2022-09-13T00:59:59.464Z,950.46
2022-09-13T01:00:59.528Z,950.41
2022-09-13T01:01:59.442Z,950.46
2022-09-13T01:02:59.413Z,950.42
2022-09-13T01:03:59.409Z,950.46
2022-09-13T01:04:59.428Z,950.39
2022-09-13T01:05:59.384Z,950.37
2022-09-13T01:06:59.381Z,950.31
2022-09-13T01:07:59.350Z,950.34
2022-09-13T01:08:59.348Z,950.36
2022-09-13T01:09:59.362Z,950.32
2022-09-13T01:10:59.320Z,950.32
2022-09-13T01:11:59.308Z,950.39
2022-09-13T01:12:59.311Z,950.27
2022-09-13T01:13:59.292Z,950.35
2022-09-13T01:14:59.277Z,950.27
2022-09-13T01:15:59.296Z,950.28
2022-09-13T01:16:59.249Z,950.38
2022-09-13T01:17:59.250Z,950.26
2022-09-13T01:18:59.229Z,950.32
2022-09-13T01:19:59.217Z,950.32
2022-09-13T01:20:59.210Z,950.26
2022-09-13T01:21:59.189Z,950.30
2022-09-13T01:22:59.206Z,950.29
2022-09-13T01:23:59.168Z,950.22
2022-09-13T01:24:59.168Z,950.25
2022-09-13T01:25:59.147Z,950.33
2022-09-13T01:26:59.137Z,950.25
2022-09-13T01:27:59.197Z,950.28
2022-09-13T01:28:59.129Z,950.28
2022-09-13T01:29:59.107Z,950.20
2022-09-13T01:30:59.098Z,950.22
2022-09-13T01:31:59.159Z,950.26
2022-09-13T01:32:59.096Z,950.19
2022-09-13T01:33:59.066Z,950.20
2022-09-13T01:34:59.049Z,950.19
2022-09-13T01:35:59.033Z,950.19
2022-09-13T01:36:59.025Z,950.20
2022-09-13T01:37:59.025Z,950.27
2022-09-13T01:38:59.010Z,950.25
2022-09-13T01:39:59.038Z,950.24
2022-09-13T01:41:02.911Z,950.27
2022-09-13T01:41:59.966Z,950.22
2022-09-13T01:42:58.955Z,950.29
2022-09-13T01:43:58.951Z,950.23
2022-09-13T01:44:58.935Z,950.24
2022-09-13T01:45:59.000Z,950.21
2022-09-13T01:46:58.905Z,950.16
2022-09-13T01:47:58.894Z,950.18
2022-09-13T01:48:58.933Z,950.17
2022-09-13T01:49:58.874Z,950.11
2022-09-13T01:50:58.863Z,950.14
2022-09-13T01:51:58.852Z,950.08
2022-09-13T01:52:58.845Z,950.10
2022-09-13T01:53:58.843Z,950.02
2022-09-13T01:54:58.824Z,950.04
2022-09-13T01:55:58.805Z,949.92
2022-09-13T01:56:58.792Z,949.96
2022-09-13T01:57:58.783Z,949.97
2022-09-13T01:58:58.772Z,950.02
2022-09-13T01:59:58.771Z,950.09
2022-09-13T02:00:58.779Z,950.07
2022-09-13T02:01:58.775Z,950.03
2022-09-13T02:02:58.721Z,950.04
2022-09-13T02:03:58.712Z,950.04
2022-09-13T02:04:58.720Z,950.07
2022-09-13T02:05:58.691Z,950.02
2022-09-13T02:06:58.681Z,950.09
2022-09-13T02:07:58.675Z,950.08
2022-09-13T02:08:58.652Z,950.09
2022-09-13T02:09:58.661Z,950.15
2022-09-13T02:10:58.631Z,950.13
2022-09-13T02:11:58.620Z,950.20
2022-09-13T02:12:58.611Z,950.20
2022-09-13T02:13:58.599Z,950.28
2022-09-13T02:14:58.587Z,950.22
2022-09-13T02:15:58.589Z,950.25
2022-09-13T02:16:58.560Z,950.21
2022-09-13T02:17:58.558Z,950.14
2022-09-13T02:18:58.539Z,950.15
2022-09-13T02:19:58.529Z,950.14
2022-09-13T02:20:58.529Z,950.12
2022-09-13T02:21:58.510Z,950.14
2022-09-13T02:22:58.497Z,950.18
2022-09-13T02:23:58.489Z,950.16
2022-09-13T02:24:58.468Z,950.23
2022-09-13T02:25:58.478Z,950.19
2022-09-13T02:26:58.449Z,950.23
2022-09-13T02:27:58.440Z,950.17
2022-09-13T02:28:58.427Z,950.21
2022-09-13T02:29:58.417Z,950.20
2022-09-13T02:30:58.406Z,950.26
2022-09-13T02:31:58.446Z,950.22
2022-09-13T02:32:58.385Z,950.24
2022-09-13T02:33:58.379Z,950.22
2022-09-13T02:34:58.356Z,950.21
2022-09-13T02:35:58.365Z,950.22
2022-09-13T02:36:58.338Z,950.17
2022-09-13T02:37:58.326Z,950.19
2022-09-13T02:38:58.313Z,950.18
2022-09-13T02:39:58.367Z,950.17
2022-09-13T02:40:58.305Z,950.15
2022-09-13T02:41:58.282Z,950.12
2022-09-13T02:42:58.275Z,950.00
2022-09-13T02:43:58.254Z,950.10
2022-09-13T02:44:58.248Z,950.11
2022-09-13T02:45:58.311Z,950.04
2022-09-13T02:46:58.232Z,950.03
2022-09-13T02:47:58.213Z,950.11
2022-09-13T02:48:58.196Z,950.10
2022-09-13T02:49:58.196Z,950.17
2022-09-13T02:50:58.176Z,950.16
2022-09-13T02:51:58.182Z,950.16
2022-09-13T02:52:58.153Z,950.15
2022-09-13T02:53:58.143Z,950.15
2022-09-13T02:54:58.132Z,950.19
2022-09-13T02:55:58.124Z,950.27
2022-09-13T02:56:58.114Z,950.20
2022-09-13T02:57:58.103Z,950.23
2022-09-13T02:58:58.082Z,950.29
2022-09-13T02:59:58.074Z,950.21
2022-09-13T03:00:58.087Z,950.21
2022-09-13T03:01:58.092Z,950.21
2022-09-13T03:02:58.045Z,950.16
2022-09-13T03:03:58.031Z,950.21
2022-09-13T03:04:58.011Z,950.16
2022-09-13T03:05:58.008Z,950.17
2022-09-13T03:06:58.001Z,950.23
2022-09-13T03:07:57.990Z,950.18
2022-09-13T03:08:57.971Z,950.20
2022-09-13T03:09:57.962Z,950.17
2022-09-13T03:10:57.941Z,950.17
2022-09-13T03:11:57.951Z,950.20
2022-09-13T03:12:57.921Z,950.25
2022-09-13T03:13:57.918Z,950.20
2022-09-13T03:14:57.899Z,950.23
2022-09-13T03:15:57.891Z,950.23
2022-09-13T03:16:57.889Z,950.23
2022-09-13T03:17:57.870Z,950.26
2022-09-13T03:18:57.857Z,950.23
2022-09-13T03:19:57.848Z,950.22
2022-09-13T03:20:57.829Z,950.23
2022-09-13T03:21:57.836Z,950.16
2022-09-13T03:22:57.819Z,950.15
2022-09-13T03:23:57.799Z,950.15
2022-09-13T03:24:57.838Z,950.19
2022-09-13T03:25:57.778Z,950.14
2022-09-13T03:26:57.768Z,950.18
2022-09-13T03:27:57.769Z,950.10
2022-09-13T03:28:57.797Z,950.09
2022-09-13T03:29:57.737Z,950.07
2022-09-13T03:30:57.717Z,950.05
2022-09-13T03:31:57.784Z,950.13
2022-09-13T03:32:57.716Z,950.14
2022-09-13T03:33:57.687Z,950.18
2022-09-13T03:34:57.757Z,950.17
2022-09-13T03:35:57.696Z,950.15
2022-09-13T03:36:57.653Z,950.26
2022-09-13T03:37:57.645Z,950.24
2022-09-13T03:38:57.636Z,950.26
2022-09-13T03:39:57.636Z,950.24
2022-09-13T03:40:57.605Z,950.26
2022-09-13T03:41:57.598Z,950.22
2022-09-13T03:42:57.584Z,950.26
2022-09-13T03:43:57.637Z,950.23
2022-09-13T03:44:57.564Z,950.23
2022-09-13T03:45:57.576Z,950.28
2022-09-13T03:46:57.534Z,950.30
2022-09-13T03:47:57.525Z,950.28
2022-09-13T03:48:57.514Z,950.25
2022-09-13T03:49:57.514Z,950.33
2022-09-13T03:50:57.494Z,950.34
2022-09-13T03:51:57.483Z,950.30
2022-09-13T03:52:57.464Z,950.31
2022-09-13T03:53:57.463Z,950.37
2022-09-13T03:54:57.453Z,950.27
2022-09-13T03:55:57.444Z,950.28
2022-09-13T03:56:57.423Z,950.23
2022-09-13T03:57:57.414Z,950.31
2022-09-13T03:58:57.410Z,950.23
2022-09-13T03:59:57.403Z,950.23
2022-09-13T04:00:57.401Z,950.24
2022-09-13T04:01:57.420Z,950.27
2022-09-13T04:02:57.352Z,950.27
2022-09-13T04:03:57.350Z,950.27
2022-09-13T04:04:57.342Z,950.28
2022-09-13T04:05:57.348Z,950.19
2022-09-13T04:06:57.309Z,950.25
2022-09-13T04:07:57.301Z,950.21
2022-09-13T04:08:57.290Z,950.16
2022-09-13T04:09:57.285Z,950.19
2022-09-13T04:10:57.301Z,950.15
2022-09-13T04:11:57.300Z,950.19
2022-09-13T04:12:57.239Z,950.16
2022-09-13T04:13:57.239Z,950.16
2022-09-13T04:14:57.229Z,950.21
2022-09-13T04:15:57.224Z,950.20
2022-09-13T04:16:57.189Z,950.21
2022-09-13T04:17:57.189Z,950.19
2022-09-13T04:18:57.169Z,950.16
2022-09-13T04:19:57.160Z,950.18
2022-09-13T04:20:57.170Z,950.19
2022-09-13T04:21:57.140Z,950.15
2022-09-13T04:22:57.127Z,950.15
2022-09-13T04:23:57.121Z,950.22
2022-09-13T04:25:01.512Z,950.27
2022-09-13T04:25:58.108Z,950.26
2022-09-13T04:26:57.078Z,950.29
2022-09-13T04:27:57.067Z,950.30
2022-09-13T04:28:57.058Z,950.24
2022-09-13T04:29:57.051Z,950.24
2022-09-13T04:30:57.048Z,950.23
2022-09-13T04:31:57.063Z,950.20
2022-09-13T04:32:57.017Z,950.19
2022-09-13T04:33:57.005Z,950.17
2022-09-13T04:34:56.987Z,950.22
2022-09-13T04:35:56.987Z,950.21
2022-09-13T04:36:56.966Z,950.29
2022-09-13T04:37:56.955Z,950.30
2022-09-13T04:38:56.947Z,950.26
2022-09-13T04:39:56.998Z,950.29
2022-09-13T04:40:56.937Z,950.29
2022-09-13T04:41:56.908Z,950.26
2022-09-13T04:42:56.905Z,950.34
2022-09-13T04:43:56.885Z,950.33
2022-09-13T04:44:56.874Z,950.28
2022-09-13T04:45:56.957Z,950.31
2022-09-13T04:46:56.855Z,950.32
2022-09-13T04:47:56.846Z,950.33
2022-09-13T04:48:56.835Z,950.32
2022-09-13T04:49:56.815Z,950.31
2022-09-13T04:50:56.812Z,950.32
2022-09-13T04:51:56.809Z,950.32
2022-09-13T04:52:56.783Z,950.32
2022-09-13T04:53:56.773Z,950.29
2022-09-13T04:54:56.764Z,950.29
2022-09-13T04:55:56.753Z,950.37
2022-09-13T04:56:56.753Z,950.31
2022-09-13T04:57:56.732Z,950.33
2022-09-13T04:58:56.724Z,950.36
2022-09-13T04:59:56.702Z,950.40
2022-09-13T05:00:56.779Z,950.42
2022-09-13T05:01:56.732Z,950.35
2022-09-13T05:02:56.676Z,950.41
2022-09-13T05:03:56.661Z,950.38
2022-09-13T05:04:56.652Z,950.40
2022-09-13T05:05:56.631Z,950.38
2022-09-13T05:06:56.654Z,950.38
2022-09-13T05:07:56.621Z,950.39
2022-09-13T05:08:56.600Z,950.49
2022-09-13T05:09:56.590Z,950.45
2022-09-13T05:10:56.579Z,950.46
2022-09-13T05:11:56.569Z,950.52
2022-09-13T05:12:56.578Z,950.48
2022-09-13T05:13:56.550Z,950.54
2022-09-13T05:14:56.539Z,950.52
2022-09-13T05:15:56.561Z,950.51
2022-09-13T05:16:56.515Z,950.51
2022-09-13T05:17:56.512Z,950.43
2022-09-13T05:18:56.491Z,950.43
2022-09-13T05:19:56.479Z,950.33
2022-09-13T05:20:56.468Z,950.37
2022-09-13T05:21:56.457Z,950.39
2022-09-13T05:22:56.467Z,950.33
2022-09-13T05:23:56.448Z,950.34
2022-09-13T05:24:56.418Z,950.29
2022-09-13T05:25:56.409Z,950.33
2022-09-13T05:26:56.399Z,950.28
2022-09-13T05:27:56.396Z,950.32
2022-09-13T05:28:56.377Z,950.31
2022-09-13T05:29:56.367Z,950.35
2022-09-13T05:30:56.368Z,950.35
2022-09-13T05:31:56.338Z,950.41
2022-09-13T05:32:56.327Z,950.42
2022-09-13T05:33:56.335Z,950.32
2022-09-13T05:34:56.305Z,950.38
2022-09-13T05:35:56.299Z,950.32
2022-09-13T05:36:56.277Z,950.28
2022-09-13T05:37:56.274Z,950.35
2022-09-13T05:39:18.864Z,950.38
2022-09-13T05:40:12.969Z,950.47
2022-09-13T05:40:57.300Z,950.43
2022-09-13T05:41:56.225Z,950.48
2022-09-13T05:42:56.220Z,950.36
2022-09-13T05:44:00.654Z,950.40
2022-09-13T05:44:57.222Z,950.40
2022-09-13T05:45:57.092Z,950.52
2022-09-13T05:46:56.291Z,950.44
2022-09-13T05:47:56.154Z,950.37
2022-09-13T05:48:56.144Z,950.36
2022-09-13T05:50:09.882Z,950.40
2022-09-13T05:50:58.506Z,950.40
2022-09-13T05:51:56.112Z,950.45
2022-09-13T05:52:56.096Z,950.46
2022-09-13T05:53:56.092Z,950.44
2022-09-13T05:54:56.095Z,950.53
2022-09-13T05:55:56.073Z,950.48
2022-09-13T05:56:56.052Z,950.51
2022-09-13T05:57:56.053Z,950.45
2022-09-13T05:58:56.032Z,950.47
2022-09-13T05:59:56.022Z,950.49
2022-09-13T06:00:56.022Z,950.50
2022-09-13T06:01:56.080Z,950.48
2022-09-13T06:02:56.027Z,950.47
2022-09-13T06:03:55.978Z,950.41
2022-09-13T06:04:55.973Z,950.41
2022-09-13T06:05:55.961Z,950.43
2022-09-13T06:06:55.941Z,950.39
2022-09-13T06:07:55.940Z,950.42
2022-09-13T06:08:55.923Z,950.47
2022-09-13T06:09:55.917Z,950.45
2022-09-13T06:10:55.910Z,950.48
2022-09-13T06:11:55.983Z,950.51
2022-09-13T06:12:55.880Z,950.53
2022-09-13T06:13:55.870Z,950.47
2022-09-13T06:14:55.861Z,950.56
2022-09-13T06:15:55.874Z,950.45
2022-09-13T06:16:55.836Z,950.49
2022-09-13T06:17:55.825Z,950.43
2022-09-13T06:18:55.859Z,950.44
2022-09-13T06:19:55.799Z,950.50
2022-09-13T06:20:55.800Z,950.52
2022-09-13T06:21:55.779Z,950.57
2022-09-13T06:22:55.759Z,950.57
2022-09-13T06:23:55.749Z,950.49
2022-09-13T06:24:55.747Z,950.46
2022-09-13T06:25:55.728Z,950.46
2022-09-13T06:26:55.721Z,950.42
2022-09-13T06:27:55.708Z,950.52
2022-09-13T06:28:55.729Z,950.50
2022-09-13T06:29:55.686Z,950.47
2022-09-13T06:30:55.715Z,950.48
2022-09-13T06:31:55.686Z,950.49
2022-09-13T06:32:55.647Z,950.52
2022-09-13T06:33:55.637Z,950.48
2022-09-13T06:34:55.627Z,950.48
2022-09-13T06:35:55.617Z,950.47
2022-09-13T06:36:55.607Z,950.42
2022-09-13T06:37:55.608Z,950.42
2022-09-13T06:38:55.577Z,950.39
2022-09-13T06:39:55.609Z,950.39
2022-09-13T06:40:55.557Z,950.35
2022-09-13T06:41:55.642Z,950.38
2022-09-13T06:42:55.537Z,950.33
2022-09-13T06:43:55.526Z,950.36
2022-09-13T06:44:55.507Z,950.32
2022-09-13T06:45:55.556Z,950.33
2022-09-13T06:46:55.501Z,950.35
2022-09-13T06:47:55.477Z,950.33
2022-09-13T06:48:55.465Z,950.35
2022-09-13T06:49:55.465Z,950.33
2022-09-13T06:50:55.442Z,950.29
2022-09-13T06:51:55.445Z,950.31
2022-09-13T06:52:55.424Z,950.28
2022-09-13T06:53:55.426Z,950.27
2022-09-13T06:54:55.394Z,950.27
2022-09-13T06:55:55.386Z,950.27
2022-09-13T06:56:55.394Z,950.31
2022-09-13T06:57:55.383Z,950.29
2022-09-13T06:58:55.352Z,950.28
2022-09-13T06:59:55.345Z,950.28
2022-09-13T07:00:56.293Z,950.23
2022-09-13T07:01:55.338Z,950.27
2022-09-13T07:02:55.324Z,950.24
2022-09-13T07:03:55.305Z,950.23
2022-09-13T07:04:55.288Z,950.24
2022-09-13T07:05:55.291Z,950.29
2022-09-13T07:06:55.263Z,950.30
2022-09-13T07:07:55.253Z,950.18
2022-09-13T07:08:55.234Z,950.20
2022-09-13T07:09:55.241Z,950.22
2022-09-13T07:10:55.221Z,950.25
2022-09-13T07:11:55.205Z,950.24
2022-09-13T07:12:55.192Z,950.21
2022-09-13T07:13:55.190Z,950.21
2022-09-13T07:14:55.181Z,950.26
2022-09-13T07:15:55.204Z,950.24
2022-09-13T07:16:55.232Z,950.14
2022-09-13T07:17:55.133Z,950.14
2022-09-13T07:18:55.133Z,950.20
2022-09-13T07:19:55.133Z,950.20
2022-09-13T07:20:55.110Z,950.16
2022-09-13T07:21:55.102Z,950.18
2022-09-13T07:22:55.102Z,950.18
2022-09-13T07:23:55.080Z,950.21
2022-09-13T07:24:55.058Z,950.25
2022-09-13T07:25:55.060Z,950.22
2022-09-13T07:26:55.032Z,950.16
2022-09-13T07:27:55.021Z,950.20
2022-09-13T07:28:55.020Z,950.13
2022-09-13T07:29:55.001Z,950.13
2022-09-13T07:30:55.042Z,950.09
2022-09-13T07:31:54.983Z,950.06
2022-09-13T07:32:54.969Z,950.09
2022-09-13T07:33:55.000Z,950.10
2022-09-13T07:34:54.941Z,950.10
2022-09-13T07:35:54.930Z,950.14
2022-09-13T07:36:54.920Z,950.16
2022-09-13T07:37:54.920Z,950.17
2022-09-13T07:38:54.899Z,950.18
2022-09-13T07:39:54.954Z,950.20
2022-09-13T07:40:54.870Z,950.21
2022-09-13T07:41:54.865Z,950.27
2022-09-13T07:42:54.851Z,950.23
2022-09-13T07:43:54.919Z,950.26
2022-09-13T07:44:54.839Z,950.24
2022-09-13T07:45:54.852Z,950.26
2022-09-13T07:46:54.811Z,950.23
2022-09-13T07:47:54.789Z,950.22
2022-09-13T07:48:54.779Z,950.20
2022-09-13T07:49:54.808Z,950.13
2022-09-13T07:50:54.759Z,950.20
2022-09-13T07:51:54.823Z,950.19
2022-09-13T07:52:54.747Z,950.21
2022-09-13T07:53:57.274Z,950.19
2022-09-13T07:54:54.739Z,950.18
2022-09-13T07:55:54.710Z,950.14
2022-09-13T07:56:54.711Z,950.14
2022-09-13T07:57:54.690Z,950.15
2022-09-13T07:58:54.668Z,950.15
2022-09-13T07:59:54.658Z,950.15
2022-09-13T08:00:54.665Z,950.17
2022-09-13T08:01:54.772Z,950.20
2022-09-13T08:02:54.628Z,950.21
2022-09-13T08:03:54.629Z,950.17
2022-09-13T08:04:54.596Z,950.21
2022-09-13T08:05:54.597Z,950.20
2022-09-13T08:06:54.605Z,950.14
2022-09-13T08:07:54.579Z,950.24
2022-09-13T08:08:54.557Z,950.25
2022-09-13T08:09:54.547Z,950.23
2022-09-13T08:10:54.529Z,950.14
2022-09-13T08:11:54.528Z,950.20
2022-09-13T08:12:54.526Z,950.13
2022-09-13T08:13:54.496Z,950.07
2022-09-13T08:14:54.486Z,950.17
2022-09-13T08:15:54.515Z,950.17
2022-09-13T08:16:54.475Z,950.25
2022-09-13T08:17:54.446Z,950.20
2022-09-13T08:18:54.454Z,950.21
2022-09-13T08:19:54.426Z,950.19
2022-09-13T08:20:54.417Z,950.20
2022-09-13T08:21:54.405Z,950.21
2022-09-13T08:22:54.453Z,950.27
2022-09-13T08:23:54.394Z,950.22
2022-09-13T08:24:54.399Z,950.18
2022-09-13T08:25:54.376Z,950.20
2022-09-13T08:26:54.375Z,950.14
2022-09-13T08:27:54.346Z,950.18
2022-09-13T08:28:54.326Z,950.17
2022-09-13T08:29:54.335Z,950.17
2022-09-13T08:30:54.358Z,950.13
2022-09-13T08:31:54.325Z,950.15
2022-09-13T08:32:54.285Z,950.19
2022-09-13T08:33:54.336Z,950.17
2022-09-13T08:34:54.256Z,950.20
2022-09-13T08:35:54.285Z,950.17
2022-09-13T08:36:54.235Z,950.13
2022-09-13T08:37:54.229Z,950.13
2022-09-13T08:38:54.214Z,950.23
2022-09-13T08:39:54.235Z,950.19
2022-09-13T08:40:54.195Z,950.20
2022-09-13T08:41:54.194Z,950.17
2022-09-13T08:42:54.184Z,950.20
2022-09-13T08:43:54.159Z,950.14
2022-09-13T08:44:54.143Z,950.14
2022-09-13T08:45:54.214Z,950.12
2022-09-13T08:46:54.123Z,950.09
2022-09-13T08:47:54.124Z,950.10
2022-09-13T08:48:54.103Z,950.07
2022-09-13T08:49:54.123Z,950.07
2022-09-13T08:50:54.077Z,950.09
2022-09-13T08:51:54.080Z,950.02
2022-09-13T08:52:54.053Z,950.07
2022-09-13T08:53:54.053Z,950.08
2022-09-13T08:54:58.092Z,950.04
2022-09-13T08:55:54.016Z,950.03
2022-09-13T08:56:54.004Z,950.03
2022-09-13T08:57:53.994Z,950.00
2022-09-13T08:58:53.983Z,950.02
2022-09-13T08:59:53.991Z,950.01
2022-09-13T09:00:53.963Z,949.93
2022-09-13T09:01:53.960Z,949.94
2022-09-13T09:02:53.993Z,949.98
2022-09-13T09:03:53.932Z,950.00
2022-09-13T09:04:53.933Z,949.92
2022-09-13T09:05:53.907Z,949.91
2022-09-13T09:06:57.451Z,949.92
2022-09-13T09:07:53.883Z,949.91
2022-09-13T09:08:53.891Z,949.97
2022-09-13T09:09:53.863Z,949.93
2022-09-13T09:10:53.864Z,949.98
2022-09-13T09:11:53.832Z,949.95
2022-09-13T09:12:53.838Z,949.99
2022-09-13T09:13:53.812Z,949.94
2022-09-13T09:14:53.803Z,949.98
2022-09-13T09:15:53.861Z,949.93
2022-09-13T09:16:53.780Z,950.01
2022-09-13T09:17:53.791Z,950.04
2022-09-13T09:18:53.754Z,950.05
2022-09-13T09:19:53.800Z,949.99
2022-09-13T09:20:54.781Z,950.01
2022-09-13T09:21:53.720Z,950.00
2022-09-13T09:22:53.711Z,950.06
2022-09-13T09:23:53.699Z,949.94
2022-09-13T09:24:53.697Z,949.98
2022-09-13T09:25:53.702Z,950.02
2022-09-13T09:26:53.682Z,950.03
2022-09-13T09:27:53.650Z,950.00
2022-09-13T09:28:53.651Z,949.96
2022-09-13T09:29:53.631Z,950.03
2022-09-13T09:30:53.693Z,950.03
2022-09-13T09:31:53.610Z,950.02
2022-09-13T09:32:53.610Z,950.00
2022-09-13T09:33:53.589Z,949.94
2022-09-13T09:34:53.573Z,949.96
2022-09-13T09:35:53.562Z,950.01
2022-09-13T09:36:54.279Z,949.92
2022-09-13T09:37:53.540Z,949.87
2022-09-13T09:38:53.520Z,949.89
2022-09-13T09:39:53.565Z,949.87
2022-09-13T09:40:53.509Z,949.74
2022-09-13T09:41:53.555Z,949.81
2022-09-13T09:42:53.512Z,949.78
2022-09-13T09:43:53.483Z,949.81
2022-09-13T09:44:53.464Z,949.73
2022-09-13T09:45:53.491Z,949.78
2022-09-13T09:46:53.457Z,949.74
2022-09-13T09:47:53.447Z,949.78
2022-09-13T09:48:53.410Z,949.74
2022-09-13T09:49:53.488Z,949.75
2022-09-13T09:50:53.391Z,949.76
2022-09-13T09:51:53.400Z,949.73
2022-09-13T09:52:53.391Z,949.80
2022-09-13T09:53:53.377Z,949.74
2022-09-13T09:54:53.340Z,949.63
2022-09-13T09:55:53.343Z,949.71
2022-09-13T09:56:53.331Z,949.62
2022-09-13T09:57:53.310Z,949.60
2022-09-13T09:58:53.312Z,949.58
2022-09-13T09:59:53.291Z,949.51
2022-09-13T10:00:53.280Z,949.54
2022-09-13T10:01:53.319Z,949.51
2022-09-13T10:02:53.257Z,949.50
2022-09-13T10:03:53.268Z,949.46
2022-09-13T10:04:53.261Z,949.42
2022-09-13T10:05:53.263Z,949.43
2022-09-13T10:06:53.209Z,949.33
2022-09-13T10:07:53.199Z,949.34
2022-09-13T10:08:53.198Z,949.31
2022-09-13T10:09:53.199Z,949.32
2022-09-13T10:10:53.180Z,949.37
2022-09-13T10:11:53.168Z,949.36
2022-09-13T10:12:53.147Z,949.31
2022-09-13T10:13:53.156Z,949.33
2022-09-13T10:14:53.118Z,949.35
2022-09-13T10:15:53.109Z,949.42
2022-09-13T10:16:53.130Z,949.44
2022-09-13T10:17:53.088Z,949.42
2022-09-13T10:18:53.088Z,949.41
2022-09-13T10:19:53.098Z,949.42
2022-09-13T10:20:53.059Z,949.36
2022-09-13T10:21:53.038Z,949.43
2022-09-13T10:22:53.028Z,949.40
2022-09-13T10:23:53.019Z,949.37
2022-09-13T10:24:53.018Z,949.39
2022-09-13T10:25:52.998Z,949.32
2022-09-13T10:26:52.981Z,949.35
2022-09-13T10:27:52.978Z,949.34
2022-09-13T10:28:52.988Z,949.39
2022-09-13T10:29:52.957Z,949.35
2022-09-13T10:30:52.999Z,949.39
2022-09-13T10:31:52.928Z,949.40
2022-09-13T10:32:52.918Z,949.38
2022-09-13T10:33:52.919Z,949.44
2022-09-13T10:34:52.888Z,949.35
2022-09-13T10:35:52.896Z,949.41
2022-09-13T10:36:53.588Z,949.29
2022-09-13T10:37:52.859Z,949.35
2022-09-13T10:38:52.884Z,949.31
2022-09-13T10:39:52.983Z,949.32
2022-09-13T10:40:52.833Z,949.35
2022-09-13T10:41:52.817Z,949.35
2022-09-13T10:42:52.798Z,949.37
2022-09-13T10:43:52.787Z,949.34
2022-09-13T10:44:52.778Z,949.33
2022-09-13T10:45:52.872Z,949.33
2022-09-13T10:46:52.758Z,949.32
2022-09-13T10:47:52.752Z,949.28
2022-09-13T10:48:52.737Z,949.27
2022-09-13T10:49:52.724Z,949.24
2022-09-13T10:50:52.707Z,949.16
2022-09-13T10:51:52.719Z,949.19
2022-09-13T10:52:52.688Z,949.21
2022-09-13T10:53:52.677Z,949.15
2022-09-13T10:54:52.667Z,949.18
2022-09-13T10:55:52.657Z,949.20
2022-09-13T10:56:52.680Z,949.20
2022-09-13T10:57:52.649Z,949.14
2022-09-13T10:58:52.633Z,949.12
2022-09-13T10:59:52.608Z,949.14
2022-09-13T11:00:52.656Z,949.10
2022-09-13T11:01:52.588Z,949.11
2022-09-13T11:02:52.588Z,949.05
2022-09-13T11:03:52.591Z,949.03
2022-09-13T11:04:52.588Z,949.06
2022-09-13T11:05:52.546Z,949.06
2022-09-13T11:06:52.537Z,949.06
2022-09-13T11:07:52.527Z,949.06
2022-09-13T11:08:52.508Z,949.07
2022-09-13T11:09:52.496Z,949.09
2022-09-13T11:10:52.489Z,949.04
2022-09-13T11:11:52.474Z,949.09
2022-09-13T11:12:52.487Z,949.05
2022-09-13T11:13:52.457Z,948.98
2022-09-13T11:14:52.438Z,948.92
2022-09-13T11:15:52.435Z,948.94
2022-09-13T11:16:52.477Z,948.96
2022-09-13T11:17:52.407Z,948.99
2022-09-13T11:18:52.405Z,948.98
2022-09-13T11:19:56.736Z,948.96
2022-09-13T11:20:52.377Z,948.94
2022-09-13T11:21:52.365Z,948.93
2022-09-13T11:22:52.357Z,948.91
2022-09-13T11:23:52.346Z,948.91
2022-09-13T11:24:52.326Z,948.86
2022-09-13T11:25:52.317Z,948.86
2022-09-13T11:26:52.306Z,948.84
2022-09-13T11:27:52.287Z,948.91
2022-09-13T11:28:52.287Z,948.84
2022-09-13T11:29:52.286Z,948.82
2022-09-13T11:30:52.259Z,948.85
2022-09-13T11:31:52.312Z,948.83
2022-09-13T11:32:53.184Z,948.80
2022-09-13T11:33:52.219Z,948.84
2022-09-13T11:34:52.235Z,948.82
2022-09-13T11:35:52.216Z,948.88
2022-09-13T11:36:52.189Z,948.85
2022-09-13T11:37:52.177Z,948.90
2022-09-13T11:38:52.185Z,948.84
2022-09-13T11:39:52.182Z,948.85
2022-09-13T11:40:52.146Z,948.86
2022-09-13T11:41:52.141Z,948.83
2022-09-13T11:42:52.131Z,948.85
2022-09-13T11:43:52.126Z,948.85
2022-09-13T11:44:52.116Z,948.84
2022-09-13T11:45:52.124Z,948.91
2022-09-13T11:46:52.077Z,948.82
2022-09-13T11:47:52.065Z,948.86
2022-09-13T11:48:52.058Z,948.82
2022-09-13T11:49:52.056Z,948.85
2022-09-13T11:50:52.046Z,948.84
2022-09-13T11:51:52.017Z,948.80
2022-09-13T11:52:52.006Z,948.87
2022-09-13T11:53:51.999Z,948.92
2022-09-13T11:54:51.996Z,948.90
2022-09-13T11:55:52.007Z,948.85
2022-09-13T11:56:51.966Z,948.90
2022-09-13T11:57:51.955Z,948.88
2022-09-13T11:58:51.944Z,948.91
2022-09-13T11:59:51.965Z,948.88
2022-09-13T12:00:51.925Z,948.85
2022-09-13T12:01:52.021Z,948.90
2022-09-13T12:02:52.017Z,948.92
2022-09-13T12:03:51.886Z,948.87
2022-09-13T12:05:11.284Z,948.90
2022-09-13T12:05:52.863Z,948.83
2022-09-13T12:06:51.866Z,948.79
2022-09-13T12:07:51.836Z,948.69
2022-09-13T12:08:51.835Z,948.74
2022-09-13T12:09:51.816Z,948.79
2022-09-13T12:10:51.814Z,948.76
2022-09-13T12:11:51.799Z,948.76
2022-09-13T12:12:51.796Z,948.72
2022-09-13T12:13:51.766Z,948.71
2022-09-13T12:14:51.758Z,948.71
2022-09-13T12:15:51.746Z,948.69
2022-09-13T12:16:51.781Z,948.67
2022-09-13T12:17:51.736Z,948.63
2022-09-13T12:18:51.736Z,948.65
2022-09-13T12:19:51.704Z,948.59
2022-09-13T12:20:51.702Z,948.68
2022-09-13T12:21:51.685Z,948.68
2022-09-13T12:22:51.686Z,948.69
2022-09-13T12:23:51.656Z,948.70
2022-09-13T12:24:51.646Z,948.67
2022-09-13T12:25:51.645Z,948.71
2022-09-13T12:26:51.651Z,948.70
2022-09-13T12:27:51.616Z,948.66